Farciennes, Belgium
Current Conditions -  °F | °C
As of 6:20 AM on Monday 20 Oct 2014 (Local Time) from EBCI Reporting Station
Few Clouds Few Clouds  
Wind Chill: 55°   Ceiling: Unl
Heat Index: 55°   Visibility: 6mi
Dew Point: 54°   Wind: 13mph
Humidity: 94%   Direction: 240°WSW
Pressure: 30.09"   Gusts: NA
Location:  50.43°N, 4.54°E
Report Text: EBCI 200420Z 24011KT 9999 FEW012 13/12 Q1019 TEMPO BKN010
Loading
Personal Weather Stations






























Interactive Weather Map
Tropical Storm Tracking
New forecast layout! Learn more

10-Day Weather Forecast

Advertisements
Track Severe Weather on mobile